Angoon, AK

5:56 AM AKDT on July 26, 2016 (GMT -0800)
Angoon | | Change Station

Elev 0 ft 57.50 °N, 134.59 °W | Updated 20 minutes ago

Light Rain
Light Rain
54 °F
Feels Like 54 °F
N
7
Wind Variable Wind from ENE

Today
High -- | Low -- °F
--% Chance of Precip.
Yesterday
High -- | Low -- °F
Precip. -- in
Pressure 30.09 in
Visibility 8.0 miles
Clouds Scattered Clouds 2700 ft
Mostly Cloudy 4000 ft
Overcast 6500 ft
Dew Point 54 °F
Humidity 100%
Rainfall 0.16 in
Snow Depth Not available.
4:43 AM 9:24 PM
Waning Gibbous, 54% visible
SPECI PAGN 261336Z AUTO 06006KT 8SM -RA SCT027 BKN040 OVC065 12/12 A3009 RMK AO2 P0003
Pressure 30.09 in
Visibility 8.0 miles
Clouds Scattered Clouds 2700 ft
Mostly Cloudy 4000 ft
Overcast 6500 ft
Dew Point 54 °F
Humidity 100%
Rainfall 0.16 in
Snow Depth Not available.
4:43 AM 9:24 PM
Waning Gibbous, 54% visible
SPECI PAGN 261336Z AUTO 06006KT 8SM -RA SCT027 BKN040 OVC065 12/12 A3009 RMK AO2 P0003

10-Day Weather Forecast

Almanac

Astronomy

Jul. 26, 2016 Rise Set
Actual Time
Civil Twilight
Nautical Twilight
Astronomical Twilight
Moon
Length of Visible Light
Length of Day
Tomorrow will be .
, % of the Moon is Illuminated

Today's Extremes

State Highs State Lows

Community

WunderPhotos

Upload Photos

1,927,587 photos uploaded!

WunderBlog® & News

Nearby

Air Quality

  Air Quality AQ Index Pollutant
Not available.

Snow Depth

Station Depth Elevation

Earthquake Activity

City Distance Mag. Time & Date
Minimum magnitude displayed is 2.5.

Coastal Water Temperatures

Place Temperature

Stations

Nearby Weather Stations

Station Location Temp. Windchill Dew Point Humidity Wind Precip. Elev Updated Type
                   

Watches & Warnings

There are currently no watches in effect.